Time;durP1;ratioP1;P1;durP2;ratioP2;P2;SDS_P1;SDS_P2;PMS_P1;PMS_P2;Temp;Humidity;BMP_temperature;BMP_pressure;BME280_temperature;BME280_humidity;BME280_pressure;Samples;Min_cycle;Max_cycle;Signal;HPM_P1;HPM_P2
2023/06/09 00:01:53;;;;;;;;;6.75;4.00;;;;;;;;5110787;28;9697;-79
2023/06/09 00:04:20;;;;;;;;;5.00;3.75;;;;;;;;5110976;28;8784;-79
2023/06/09 00:06:46;;;;;;;;;7.00;5.50;;;;;;;;5110636;28;9641;-80
2023/06/09 00:09:12;;;;;;;;;8.25;7.75;;;;;;;;5110063;28;9612;-79
2023/06/09 00:11:37;;;;;;;;;7.00;7.00;;;;;;;;5092380;28;9714;-79
2023/06/09 00:14:02;;;;;;;;;7.50;6.50;;;;;;;;5092357;28;8823;-79
2023/06/09 00:16:28;;;;;;;;;8.00;7.75;;;;;;;;5110668;28;8811;-80
2023/06/09 00:18:54;;;;;;;;;11.00;7.75;;;;;;;;5110642;28;8884;-79
2023/06/09 00:21:19;;;;;;;;;6.75;6.75;;;;;;;;5110859;28;9557;-80
2023/06/09 00:23:45;;;;;;;;;8.50;7.00;;;;;;;;5110443;28;8799;-79
2023/06/09 00:26:11;;;;;;;;;8.25;8.00;;;;;;;;5110907;28;9204;-80
2023/06/09 00:28:36;;;;;;;;;9.25;7.50;;;;;;;;5110239;28;8780;-79
2023/06/09 00:31:02;;;;;;;;;8.25;8.00;;;;;;;;5110773;28;10187;-79
2023/06/09 00:33:27;;;;;;;;;7.00;7.00;;;;;;;;5092271;28;8966;-79
2023/06/09 00:35:52;;;;;;;;;9.50;7.25;;;;;;;;5110672;28;8796;-79
2023/06/09 00:38:18;;;;;;;;;8.25;8.00;;;;;;;;5110404;28;8856;-79
2023/06/09 00:40:43;;;;;;;;;11.50;8.00;;;;;;;;5113978;28;8820;-79
2023/06/09 00:43:08;;;;;;;;;7.75;7.00;;;;;;;;5114369;28;8796;-78
2023/06/09 00:45:33;;;;;;;;;8.00;8.00;;;;;;;;5114215;28;9862;-78
2023/06/09 00:47:59;;;;;;;;;7.25;4.00;;;;;;;;5113916;28;8776;-78
2023/06/09 00:50:24;;;;;;;;;8.00;7.75;;;;;;;;5095898;28;8930;-78
2023/06/09 00:52:51;;;;;;;;;6.00;6.00;;;;;;;;5095539;28;8823;-79
2023/06/09 00:55:17;;;;;;;;;11.00;7.00;;;;;;;;5114007;28;8790;-79
2023/06/09 00:57:43;;;;;;;;;9.25;8.00;;;;;;;;5114016;28;10157;-78
2023/06/09 01:00:10;;;;;;;;;10.00;7.75;;;;;;;;5095715;28;10924;-79
2023/06/09 01:02:38;;;;;;;;;8.75;8.75;;;;;;;;5095646;28;8815;-78
2023/06/09 01:05:04;;;;;;;;;6.75;6.25;;;;;;;;5075470;28;10203;-78
2023/06/09 01:07:42;;;;;;;;;6.75;6.75;;;;;;;;5093047;28;10358;-78
2023/06/09 01:10:08;;;;;;;;;6.00;6.00;;;;;;;;5093311;28;10181;-78
2023/06/09 01:12:52;;;;;;;;;7.75;6.50;;;;;;;;5093179;28;10047;-78
2023/06/09 01:15:20;;;;;;;;;7.00;7.00;;;;;;;;5093363;28;8790;-78
2023/06/09 01:17:54;;;;;;;;;6.75;5.00;;;;;;;;5093226;28;10093;-78
2023/06/09 01:20:35;;;;;;;;;7.00;6.00;;;;;;;;5093273;28;10094;-78
2023/06/09 01:23:15;;;;;;;;;7.00;7.00;;;;;;;;5092924;28;10767;-77
2023/06/09 01:25:42;;;;;;;;;6.00;6.00;;;;;;;;5074873;28;9966;-77
2023/06/09 01:28:11;;;;;;;;;7.50;6.50;;;;;;;;5093053;28;10261;-78
2023/06/09 01:30:40;;;;;;;;;6.75;6.75;;;;;;;;5093054;28;10043;-77
2023/06/09 01:33:10;;;;;;;;;7.25;6.75;;;;;;;;5092802;28;10058;-78
2023/06/09 01:35:37;;;;;;;;;8.00;8.00;;;;;;;;5101675;28;9945;-78
2023/06/09 01:38:03;;;;;;;;;8.75;8.25;;;;;;;;5094854;28;10044;-78
2023/06/09 01:40:29;;;;;;;;;9.00;8.00;;;;;;;;5112872;28;10176;-78
2023/06/09 01:42:56;;;;;;;;;8.00;8.00;;;;;;;;5094413;28;8791;-78
2023/06/09 01:45:21;;;;;;;;;6.50;6.50;;;;;;;;5113066;28;10258;-78
2023/06/09 01:47:47;;;;;;;;;9.75;6.50;;;;;;;;5113157;28;10354;-78
2023/06/09 01:50:30;;;;;;;;;7.25;6.00;;;;;;;;5112846;28;8784;-78
2023/06/09 01:52:58;;;;;;;;;6.00;6.00;;;;;;;;5094425;28;8807;-78
2023/06/09 01:55:32;;;;;;;;;6.00;6.00;;;;;;;;5094292;28;10282;-77
2023/06/09 01:58:04;;;;;;;;;6.00;6.00;;;;;;;;5094124;28;10194;-78
2023/06/09 02:00:30;;;;;;;;;7.25;7.00;;;;;;;;5112718;28;10357;-78
2023/06/09 02:02:57;;;;;;;;;6.25;6.00;;;;;;;;5112693;28;10321;-79
2023/06/09 02:05:23;;;;;;;;;3.50;3.25;;;;;;;;5112824;28;8791;-79
2023/06/09 02:07:51;;;;;;;;;11.00;7.00;;;;;;;;5112554;28;10139;-77
2023/06/09 02:10:17;;;;;;;;;6.00;6.00;;;;;;;;5112518;28;10386;-77
2023/06/09 02:12:43;;;;;;;;;6.00;6.00;;;;;;;;5112389;28;10460;-78
2023/06/09 02:15:08;;;;;;;;;10.50;7.00;;;;;;;;5112595;28;10320;-78
2023/06/09 02:17:33;;;;;;;;;6.00;6.00;;;;;;;;5112023;28;8811;-78
2023/06/09 02:19:59;;;;;;;;;6.25;6.00;;;;;;;;5112393;28;8779;-78
2023/06/09 02:22:24;;;;;;;;;7.50;4.00;;;;;;;;5112267;28;8821;-78
2023/06/09 02:24:50;;;;;;;;;5.75;5.75;;;;;;;;5093905;28;8860;-78
2023/06/09 02:27:15;;;;;;;;;7.25;6.00;;;;;;;;5094118;28;8807;-77
2023/06/09 02:29:40;;;;;;;;;8.00;8.00;;;;;;;;5112373;28;8796;-77
2023/06/09 02:32:06;;;;;;;;;7.50;7.25;;;;;;;;5112197;28;8804;-77
2023/06/09 02:34:31;;;;;;;;;9.00;6.25;;;;;;;;5112242;28;9570;-77
2023/06/09 02:36:57;;;;;;;;;9.75;7.50;;;;;;;;5111717;28;8811;-78
2023/06/09 02:39:23;;;;;;;;;10.25;8.50;;;;;;;;5112188;28;8784;-77
2023/06/09 02:41:48;;;;;;;;;7.00;7.00;;;;;;;;5112074;28;8768;-81
2023/06/09 02:44:13;;;;;;;;;9.00;6.50;;;;;;;;5112094;28;8783;-78
2023/06/09 02:46:40;;;;;;;;;8.50;7.00;;;;;;;;5111995;28;8814;-78
2023/06/09 02:49:05;;;;;;;;;7.00;7.00;;;;;;;;5111903;28;8768;-79
2023/06/09 02:51:30;;;;;;;;;6.00;6.00;;;;;;;;5111660;28;10466;-79
2023/06/09 02:53:56;;;;;;;;;6.25;6.00;;;;;;;;5111493;28;8827;-79
2023/06/09 02:56:22;;;;;;;;;7.00;6.00;;;;;;;;5093048;28;8834;-80
2023/06/09 02:58:48;;;;;;;;;6.00;6.00;;;;;;;;5112351;28;8796;-79
2023/06/09 03:01:17;;;;;;;;;7.75;7.00;;;;;;;;5093629;28;10540;-79
2023/06/09 03:03:43;;;;;;;;;7.50;5.75;;;;;;;;5111955;28;8808;-79
2023/06/09 03:06:08;;;;;;;;;7.00;7.00;;;;;;;;5111661;28;10595;-79
2023/06/09 03:08:33;;;;;;;;;7.75;6.50;;;;;;;;5093419;28;8799;-80
2023/06/09 03:10:59;;;;;;;;;7.75;6.00;;;;;;;;5111422;28;8776;-80
2023/06/09 03:13:24;;;;;;;;;6.50;5.25;;;;;;;;5111401;28;9005;-80
2023/06/09 03:15:50;;;;;;;;;7.50;6.00;;;;;;;;5111577;28;8787;-78
2023/06/09 03:18:15;;;;;;;;;6.25;6.25;;;;;;;;5111623;28;8806;-80
2023/06/09 03:20:42;;;;;;;;;9.50;6.00;;;;;;;;5111513;28;8832;-77
2023/06/09 03:23:08;;;;;;;;;5.00;5.00;;;;;;;;5093272;28;9526;-77
2023/06/09 03:25:33;;;;;;;;;6.00;6.00;;;;;;;;5111370;28;10640;-78
2023/06/09 03:27:58;;;;;;;;;8.00;6.00;;;;;;;;5111400;28;10552;-79
2023/06/09 03:30:24;;;;;;;;;6.50;5.75;;;;;;;;5110782;28;8804;-78
2023/06/09 03:32:50;;;;;;;;;6.25;5.50;;;;;;;;5092866;28;8838;-79
2023/06/09 03:35:23;;;;;;;;;6.00;6.00;;;;;;;;5111140;28;8772;-78
2023/06/09 03:37:48;;;;;;;;;6.75;5.00;;;;;;;;5111227;28;10524;-78
2023/06/09 03:40:15;;;;;;;;;7.75;5.25;;;;;;;;5110995;28;10630;-78
2023/06/09 03:42:40;;;;;;;;;5.75;5.75;;;;;;;;5111054;28;9695;-78
2023/06/09 03:45:06;;;;;;;;;5.25;5.25;;;;;;;;5110993;28;10522;-78
2023/06/09 03:47:31;;;;;;;;;10.00;7.00;;;;;;;;5111135;28;8800;-78
2023/06/09 03:49:56;;;;;;;;;3.50;3.50;;;;;;;;5110555;28;8780;-78
2023/06/09 03:52:22;;;;;;;;;6.50;2.00;;;;;;;;5110995;28;8823;-78
2023/06/09 03:54:47;;;;;;;;;7.00;6.25;;;;;;;;5111479;28;8795;-77
2023/06/09 03:57:12;;;;;;;;;7.00;6.00;;;;;;;;5111085;28;8792;-77
2023/06/09 03:59:38;;;;;;;;;8.00;6.50;;;;;;;;5111081;28;8804;-78
2023/06/09 04:02:03;;;;;;;;;7.00;7.00;;;;;;;;5110868;28;8838;-77
2023/06/09 04:04:28;;;;;;;;;5.75;5.75;;;;;;;;5110516;28;8886;-78
2023/06/09 04:06:56;;;;;;;;;6.00;5.50;;;;;;;;5111267;28;8910;-77
2023/06/09 04:09:21;;;;;;;;;7.00;7.00;;;;;;;;5110763;28;8916;-78
2023/06/09 04:11:47;;;;;;;;;8.00;6.75;;;;;;;;5110759;28;10752;-78
2023/06/09 04:14:12;;;;;;;;;5.00;5.00;;;;;;;;5112185;28;8792;-78
2023/06/09 04:16:37;;;;;;;;;6.75;6.75;;;;;;;;5114916;28;8792;-78
2023/06/09 04:19:02;;;;;;;;;6.00;5.00;;;;;;;;5106611;28;9697;-79
2023/06/09 04:21:28;;;;;;;;;7.00;6.00;;;;;;;;5105250;28;8819;-79
2023/06/09 04:23:53;;;;;;;;;5.25;5.25;;;;;;;;5096663;28;8814;-75
2023/06/09 04:26:18;;;;;;;;;3.00;2.00;;;;;;;;5094705;28;8875;-79
2023/06/09 04:28:44;;;;;;;;;7.25;7.25;;;;;;;;5076223;28;8825;-79
2023/06/09 04:31:11;;;;;;;;;8.00;7.00;;;;;;;;5094807;28;9528;-79
2023/06/09 04:33:36;;;;;;;;;11.25;7.00;;;;;;;;5096111;28;10722;-79
2023/06/09 04:36:05;;;;;;;;;10.75;8.00;;;;;;;;5106611;28;11794;-79
2023/06/09 04:38:32;;;;;;;;;9.25;7.00;;;;;;;;5080938;28;9662;-81
2023/06/09 04:41:01;;;;;;;;;5.50;5.50;;;;;;;;5094112;28;10701;-74
2023/06/09 04:43:27;;;;;;;;;10.00;7.00;;;;;;;;5113300;28;10621;-78
2023/06/09 04:45:55;;;;;;;;;6.00;6.00;;;;;;;;5114443;28;10995;-76
2023/06/09 04:48:21;;;;;;;;;5.75;5.75;;;;;;;;5114417;28;8788;-74
2023/06/09 04:50:47;;;;;;;;;9.50;7.50;;;;;;;;5114453;28;10597;-76
2023/06/09 04:53:15;;;;;;;;;8.00;7.00;;;;;;;;5114151;28;10712;-76
2023/06/09 04:55:40;;;;;;;;;13.25;7.75;;;;;;;;5114087;28;10743;-77
2023/06/09 04:58:06;;;;;;;;;7.25;5.00;;;;;;;;5114796;28;11562;-77
2023/06/09 05:00:31;;;;;;;;;7.00;7.00;;;;;;;;5114231;28;8799;-77
2023/06/09 05:03:01;;;;;;;;;9.50;8.00;;;;;;;;5113809;28;8831;-77
2023/06/09 05:05:26;;;;;;;;;9.50;7.25;;;;;;;;5112256;28;8804;-77
2023/06/09 05:07:51;;;;;;;;;10.75;7.25;;;;;;;;5114675;28;11537;-76
2023/06/09 05:10:17;;;;;;;;;10.25;9.50;;;;;;;;5114104;28;9504;-76
2023/06/09 05:12:42;;;;;;;;;10.25;7.75;;;;;;;;5095760;28;8818;-78
2023/06/09 05:15:08;;;;;;;;;12.25;10.25;;;;;;;;5113813;28;9494;-78
2023/06/09 05:17:33;;;;;;;;;11.00;8.50;;;;;;;;5105731;28;8885;-74
2023/06/09 05:20:02;;;;;;;;;11.25;8.00;;;;;;;;5104192;28;8821;-76
2023/06/09 05:22:27;;;;;;;;;10.00;8.25;;;;;;;;5093174;28;9548;-80
2023/06/09 05:24:53;;;;;;;;;7.50;7.50;;;;;;;;5102192;28;10713;-84
2023/06/09 05:27:18;;;;;;;;;8.50;7.50;;;;;;;;5113775;28;8795;-78
2023/06/09 05:29:43;;;;;;;;;8.25;8.25;;;;;;;;5099639;28;8821;-80
2023/06/09 05:32:09;;;;;;;;;10.00;8.00;;;;;;;;5092354;28;8924;-79
2023/06/09 05:34:34;;;;;;;;;10.25;8.25;;;;;;;;5093004;28;8894;-77
2023/06/09 05:36:59;;;;;;;;;9.75;7.50;;;;;;;;5113639;28;8908;-86
2023/06/09 05:39:25;;;;;;;;;15.00;10.75;;;;;;;;5111794;28;8784;-80
2023/06/09 05:41:50;;;;;;;;;10.00;7.50;;;;;;;;5111490;28;8941;-76
2023/06/09 05:44:15;;;;;;;;;9.50;9.50;;;;;;;;5113258;28;8796;-78
2023/06/09 05:46:41;;;;;;;;;12.00;8.50;;;;;;;;5113237;28;8803;-76
2023/06/09 05:49:06;;;;;;;;;12.25;10.75;;;;;;;;5113230;28;8823;-74
2023/06/09 05:51:35;;;;;;;;;12.00;8.00;;;;;;;;5113233;28;8799;-79
2023/06/09 05:54:00;;;;;;;;;11.00;10.00;;;;;;;;5113308;28;8819;-80
2023/06/09 05:56:25;;;;;;;;;12.00;11.00;;;;;;;;5112752;28;10594;-75
2023/06/09 05:58:51;;;;;;;;;11.50;10.50;;;;;;;;5112565;28;8788;-74
2023/06/09 06:01:16;;;;;;;;;7.25;6.50;;;;;;;;5111541;28;8860;-75
2023/06/09 06:03:42;;;;;;;;;8.25;8.25;;;;;;;;5094414;28;8838;-76
2023/06/09 06:06:08;;;;;;;;;12.50;9.00;;;;;;;;5093646;28;8808;-73
2023/06/09 06:08:34;;;;;;;;;7.00;6.00;;;;;;;;5112973;28;8775;-73
2023/06/09 06:10:59;;;;;;;;;11.00;9.00;;;;;;;;5112666;28;10400;-78
2023/06/09 06:13:24;;;;;;;;;9.00;8.00;;;;;;;;5112834;28;8868;-74
2023/06/09 06:15:50;;;;;;;;;10.50;8.00;;;;;;;;5112631;28;8852;-74
2023/06/09 06:18:15;;;;;;;;;11.25;8.50;;;;;;;;5112251;28;8819;-74
2023/06/09 06:20:41;;;;;;;;;8.25;8.25;;;;;;;;5112620;28;8821;-75
2023/06/09 06:23:08;;;;;;;;;6.75;6.75;;;;;;;;5112551;28;8826;-74
2023/06/09 06:25:35;;;;;;;;;10.00;8.75;;;;;;;;5112386;28;9502;-74
2023/06/09 06:28:01;;;;;;;;;10.75;10.75;;;;;;;;5112450;28;10470;-75
2023/06/09 06:30:27;;;;;;;;;8.75;8.75;;;;;;;;5093965;28;10422;-74
2023/06/09 06:32:52;;;;;;;;;11.75;11.75;;;;;;;;5112613;28;8804;-75
2023/06/09 06:35:25;;;;;;;;;14.00;12.75;;;;;;;;5112213;28;8795;-74
2023/06/09 06:37:50;;;;;;;;;9.00;9.00;;;;;;;;5111068;28;9026;-73
2023/06/09 06:40:16;;;;;;;;;9.00;8.00;;;;;;;;5111935;28;10561;-73
2023/06/09 06:42:41;;;;;;;;;11.75;10.50;;;;;;;;5093786;28;8848;-74
2023/06/09 06:45:06;;;;;;;;;11.25;8.00;;;;;;;;5112027;28;8802;-74
2023/06/09 06:47:32;;;;;;;;;9.50;9.50;;;;;;;;5112085;28;8904;-73
2023/06/09 06:49:57;;;;;;;;;8.75;8.00;;;;;;;;5112017;28;9637;-76
2023/06/09 06:52:22;;;;;;;;;9.25;8.50;;;;;;;;5093569;28;8915;-76
2023/06/09 06:54:47;;;;;;;;;12.25;11.00;;;;;;;;5111844;28;8792;-76
2023/06/09 06:57:13;;;;;;;;;10.00;8.50;;;;;;;;5111579;28;8887;-75
2023/06/09 06:59:38;;;;;;;;;9.00;7.50;;;;;;;;5112199;28;8879;-75
2023/06/09 07:02:04;;;;;;;;;11.50;9.00;;;;;;;;5093478;28;8804;-76
2023/06/09 07:04:29;;;;;;;;;10.25;8.00;;;;;;;;5111734;28;8922;-76
2023/06/09 07:06:55;;;;;;;;;13.25;9.00;;;;;;;;5111734;28;8849;-76
2023/06/09 07:09:20;;;;;;;;;9.75;8.50;;;;;;;;5112035;28;8840;-74
2023/06/09 07:11:46;;;;;;;;;9.00;9.00;;;;;;;;5115311;28;8803;-76
2023/06/09 07:14:11;;;;;;;;;10.00;9.00;;;;;;;;5111502;28;8815;-78
2023/06/09 07:16:36;;;;;;;;;10.00;9.00;;;;;;;;5111666;28;8869;-76
2023/06/09 07:19:01;;;;;;;;;11.25;8.75;;;;;;;;5111631;28;8775;-77
2023/06/09 07:21:29;;;;;;;;;7.75;7.75;;;;;;;;5111605;28;8787;-74
2023/06/09 07:23:54;;;;;;;;;9.00;9.00;;;;;;;;5111512;28;8812;-76
2023/06/09 07:26:19;;;;;;;;;10.00;8.00;;;;;;;;5111292;28;9458;-77
2023/06/09 07:28:44;;;;;;;;;13.75;8.75;;;;;;;;5110868;28;8910;-75
2023/06/09 07:31:11;;;;;;;;;8.00;8.00;;;;;;;;5111590;28;8775;-77
2023/06/09 07:33:37;;;;;;;;;7.00;7.00;;;;;;;;5111523;28;8779;-78
2023/06/09 07:36:02;;;;;;;;;7.67;7.67;;;;;;;;5111234;28;9339;-77
2023/06/09 07:38:28;;;;;;;;;9.00;7.67;;;;;;;;5111297;28;9115;-77
2023/06/09 07:40:53;;;;;;;;;7.00;5.00;;;;;;;;5111107;28;8884;-75
2023/06/09 07:43:19;;;;;;;;;9.00;9.00;;;;;;;;5111154;28;8824;-78
2023/06/09 07:45:45;;;;;;;;;9.33;6.33;;;;;;;;5110950;28;8879;-78
2023/06/09 07:48:10;;;;;;;;;5.33;5.33;;;;;;;;5110932;28;8799;-78
2023/06/09 07:50:36;;;;;;;;;8.67;8.67;;;;;;;;5111065;28;11399;-78
2023/06/09 07:53:01;;;;;;;;;7.67;7.67;;;;;;;;5111024;28;8844;-78
2023/06/09 07:55:26;;;;;;;;;8.33;8.00;;;;;;;;5111041;28;8776;-78
2023/06/09 07:57:52;;;;;;;;;5.67;4.00;;;;;;;;5111529;28;8813;-78
2023/06/09 08:00:18;;;;;;;;;6.00;4.00;;;;;;;;5093025;28;8791;-78
2023/06/09 08:02:43;;;;;;;;;12.25;8.50;;;;;;;;5111131;28;9537;-78
2023/06/09 08:05:09;;;;;;;;;16.00;16.00;;;;;;;;5110854;28;8827;-78
2023/06/09 08:07:35;;;;;;;;;11.00;10.00;;;;;;;;5110813;28;8784;-79
2023/06/09 08:10:01;;;;;;;;;8.50;8.00;;;;;;;;5110909;28;9598;-79
2023/06/09 08:12:26;;;;;;;;;8.00;8.00;;;;;;;;5110912;28;8772;-78
2023/06/09 08:14:51;;;;;;;;;8.67;8.67;;;;;;;;5110979;28;8780;-78
2023/06/09 08:17:16;;;;;;;;;9.00;8.67;;;;;;;;5111194;28;8788;-78
2023/06/09 08:19:42;;;;;;;;;12.33;9.33;;;;;;;;5111006;28;8776;-79
2023/06/09 08:22:07;;;;;;;;;10.00;9.00;;;;;;;;5110367;28;8772;-78
2023/06/09 08:24:32;;;;;;;;;8.00;7.33;;;;;;;;5110816;28;8853;-78
2023/06/09 08:26:59;;;;;;;;;9.33;9.33;;;;;;;;5110856;28;8882;-78
2023/06/09 08:29:25;;;;;;;;;9.50;9.00;;;;;;;;5110959;28;8789;-78
2023/06/09 08:31:50;;;;;;;;;8.67;7.00;;;;;;;;5111030;28;8792;-78
2023/06/09 08:34:15;;;;;;;;;8.67;8.67;;;;;;;;5111126;28;8791;-78
2023/06/09 08:36:41;;;;;;;;;8.00;8.00;;;;;;;;5110944;28;9647;-78
2023/06/09 08:39:06;;;;;;;;;11.33;10.00;;;;;;;;5110892;28;9542;-78
2023/06/09 08:41:37;;;;;;;;;12.00;9.00;;;;;;;;5091620;28;8846;-78
2023/06/09 08:44:02;;;;;;;;;8.33;8.00;;;;;;;;5110892;28;8892;-78
2023/06/09 08:46:30;;;;;;;;;11.00;10.00;;;;;;;;5110585;28;8761;-78
2023/06/09 08:48:57;;;;;;;;;28.50;22.50;;;;;;;;5110633;28;8775;-78
2023/06/09 08:51:22;;;;;;;;;10.50;10.00;;;;;;;;5110501;28;9516;-78
2023/06/09 08:53:52;;;;;;;;;8.33;8.33;;;;;;;;5110439;28;8815;-78
2023/06/09 08:56:17;;;;;;;;;8.50;8.50;;;;;;;;5110404;28;8764;-79
2023/06/09 08:58:42;;;;;;;;;6.67;6.67;;;;;;;;5110596;28;8788;-76
2023/06/09 09:01:08;;;;;;;;;7.00;7.00;;;;;;;;5094796;28;8803;-77
2023/06/09 09:03:34;;;;;;;;;7.00;7.00;;;;;;;;5114207;28;8828;-77
2023/06/09 09:05:59;;;;;;;;;6.00;6.00;;;;;;;;5114285;28;8830;-77
2023/06/09 09:08:25;;;;;;;;;7.33;7.33;;;;;;;;5114065;28;8856;-77
2023/06/09 09:10:50;;;;;;;;;6.67;6.67;;;;;;;;5113755;28;8792;-77
2023/06/09 09:13:17;;;;;;;;;7.00;6.67;;;;;;;;5114043;28;8894;-77
2023/06/09 09:15:49;;;;;;;;;8.00;6.50;;;;;;;;5095209;28;9665;-77
2023/06/09 09:18:14;;;;;;;;;9.25;8.00;;;;;;;;5113926;28;9551;-76
2023/06/09 09:20:41;;;;;;;;;9.00;8.33;;;;;;;;5113761;28;8784;-77
2023/06/09 09:23:07;;;;;;;;;9.00;8.00;;;;;;;;5113722;28;8812;-77
2023/06/09 09:25:32;;;;;;;;;8.00;8.00;;;;;;;;5113374;28;8826;-76
2023/06/09 09:28:03;;;;;;;;;9.00;9.00;;;;;;;;5113618;28;8792;-76
2023/06/09 09:30:41;;;;;;;;;9.50;9.00;;;;;;;;5113617;28;8864;-77
2023/06/09 09:33:09;;;;;;;;;9.75;8.00;;;;;;;;5095247;28;8799;-77
2023/06/09 09:35:36;;;;;;;;;9.25;9.00;;;;;;;;5113231;28;8811;-77
2023/06/09 09:38:01;;;;;;;;;9.00;9.00;;;;;;;;5095078;28;8843;-76
2023/06/09 09:40:27;;;;;;;;;9.33;9.33;;;;;;;;5094887;28;9476;-76
2023/06/09 09:42:53;;;;;;;;;9.00;9.00;;;;;;;;5113344;28;8823;-77
2023/06/09 09:45:27;;;;;;;;;10.33;10.00;;;;;;;;5113535;28;11384;-79
2023/06/09 09:47:52;;;;;;;;;13.25;10.75;;;;;;;;5113394;28;8876;-78
2023/06/09 09:50:23;;;;;;;;;10.00;10.00;;;;;;;;5113177;28;8776;-76
2023/06/09 09:52:50;;;;;;;;;11.00;10.75;;;;;;;;5112702;28;9549;-77
2023/06/09 09:55:16;;;;;;;;;16.00;15.00;;;;;;;;5094814;28;8834;-76
2023/06/09 09:57:42;;;;;;;;;12.00;11.00;;;;;;;;5094881;28;9660;-77
2023/06/09 10:00:12;;;;;;;;;12.25;12.25;;;;;;;;5113650;28;8796;-76
2023/06/09 10:02:39;;;;;;;;;13.00;13.00;;;;;;;;5094695;28;8831;-76
2023/06/09 10:05:06;;;;;;;;;11.50;9.75;;;;;;;;5094565;28;8977;-76
2023/06/09 10:07:35;;;;;;;;;11.25;10.00;;;;;;;;5112952;28;8904;-77
2023/06/09 10:10:00;;;;;;;;;9.50;9.50;;;;;;;;5112456;28;8804;-77
2023/06/09 10:12:26;;;;;;;;;14.00;12.00;;;;;;;;5112459;27;9518;-77
2023/06/09 10:14:53;;;;;;;;;11.00;10.00;;;;;;;;5112694;28;8803;-77
2023/06/09 10:17:22;;;;;;;;;6.50;4.75;;;;;;;;5112725;28;8768;-77
2023/06/09 10:19:51;;;;;;;;;11.00;10.00;;;;;;;;5094279;28;8792;-76
2023/06/09 10:22:18;;;;;;;;;10.00;9.00;;;;;;;;5112633;28;8775;-77
2023/06/09 10:24:44;;;;;;;;;10.00;9.00;;;;;;;;5094120;28;8857;-77
2023/06/09 10:27:09;;;;;;;;;11.00;11.00;;;;;;;;5112251;28;8760;-77
2023/06/09 10:29:35;;;;;;;;;12.67;10.67;;;;;;;;5112581;28;8795;-73
2023/06/09 10:32:01;;;;;;;;;9.00;9.00;;;;;;;;5112265;28;8876;-76
2023/06/09 10:34:27;;;;;;;;;10.00;10.00;;;;;;;;5112496;28;8776;-77
2023/06/09 10:36:53;;;;;;;;;11.33;11.33;;;;;;;;5112611;28;8802;-74
2023/06/09 10:39:24;;;;;;;;;11.00;10.00;;;;;;;;5112442;28;9096;-75
2023/06/09 10:42:08;;;;;;;;;11.00;8.50;;;;;;;;5112099;28;8796;-75
2023/06/09 10:44:39;;;;;;;;;11.00;10.00;;;;;;;;5112033;28;8796;-76
2023/06/09 10:47:05;;;;;;;;;12.25;11.25;;;;;;;;5111854;28;9538;-80
2023/06/09 10:49:36;;;;;;;;;9.25;8.00;;;;;;;;5112175;28;9644;-78
2023/06/09 10:52:02;;;;;;;;;9.25;9.25;;;;;;;;5111968;28;8796;-76
2023/06/09 10:54:29;;;;;;;;;9.33;9.00;;;;;;;;5093890;28;8811;-79
2023/06/09 10:56:57;;;;;;;;;12.33;12.33;;;;;;;;5093419;28;9805;-79
2023/06/09 10:59:25;;;;;;;;;9.25;9.00;;;;;;;;5112712;28;8995;-79
2023/06/09 11:02:02;;;;;;;;;7.33;7.00;;;;;;;;5111870;28;8977;-78
2023/06/09 11:04:46;;;;;;;;;9.00;9.00;;;;;;;;5111500;28;8897;-77
2023/06/09 11:07:12;;;;;;;;;9.00;8.33;;;;;;;;5111886;28;8954;-79
2023/06/09 11:09:37;;;;;;;;;9.00;9.00;;;;;;;;5111631;28;9201;-75
2023/06/09 11:12:03;;;;;;;;;9.33;9.33;;;;;;;;5089334;28;8969;-73
2023/06/09 11:14:43;;;;;;;;;8.00;8.00;;;;;;;;5111689;28;8883;-73
2023/06/09 11:17:15;;;;;;;;;9.75;8.00;;;;;;;;5111712;28;8867;-73
2023/06/09 11:19:40;;;;;;;;;7.25;7.25;;;;;;;;5111520;28;8783;-71
2023/06/09 11:22:06;;;;;;;;;10.00;9.67;;;;;;;;5108431;28;8810;-73
2023/06/09 11:24:50;;;;;;;;;11.33;10.00;;;;;;;;5110830;28;8847;-74
2023/06/09 11:27:19;;;;;;;;;8.00;8.00;;;;;;;;5111465;28;8916;-75
2023/06/09 11:30:03;;;;;;;;;8.00;8.00;;;;;;;;5111351;28;8792;-71
2023/06/09 11:32:44;;;;;;;;;9.25;5.75;;;;;;;;5103952;28;8802;-73
2023/06/09 11:35:39;;;;;;;;;6.75;4.75;;;;;;;;5095966;28;8811;-73
2023/06/09 11:38:08;;;;;;;;;5.50;5.50;;;;;;;;5102400;28;8799;-73
2023/06/09 11:40:50;;;;;;;;;6.00;6.00;;;;;;;;5092990;28;9573;-83
2023/06/09 11:43:22;;;;;;;;;5.25;4.75;;;;;;;;5096562;28;8854;-73
2023/06/09 11:45:48;;;;;;;;;10.25;9.00;;;;;;;;5106617;28;8816;-73
2023/06/09 11:48:14;;;;;;;;;5.00;5.00;;;;;;;;5109127;28;9538;-74
2023/06/09 11:50:40;;;;;;;;;8.75;7.00;;;;;;;;5108838;28;8834;-75
2023/06/09 11:53:09;;;;;;;;;6.33;6.33;;;;;;;;5095619;28;9611;-76
2023/06/09 11:55:34;;;;;;;;;15.00;14.00;;;;;;;;5088310;28;9504;-75
2023/06/09 11:58:01;;;;;;;;;8.00;6.00;;;;;;;;5090609;28;8883;-76
2023/06/09 12:00:27;;;;;;;;;6.00;5.00;;;;;;;;5090197;28;8798;-80
2023/06/09 12:02:52;;;;;;;;;6.50;6.50;;;;;;;;5088509;28;8849;-79
2023/06/09 12:05:19;;;;;;;;;6.00;6.00;;;;;;;;5096895;28;8792;-75
2023/06/09 12:07:44;;;;;;;;;7.25;5.50;;;;;;;;5109244;28;8781;-77
2023/06/09 12:10:10;;;;;;;;;6.00;5.00;;;;;;;;5098355;28;8884;-78
2023/06/09 12:12:42;;;;;;;;;9.00;7.00;;;;;;;;5098317;28;8810;-75
2023/06/09 12:15:09;;;;;;;;;7.25;7.25;;;;;;;;5096469;28;8798;-77
2023/06/09 12:17:34;;;;;;;;;6.75;5.75;;;;;;;;5110787;28;8880;-75
2023/06/09 12:20:18;;;;;;;;;5.33;5.33;;;;;;;;5110656;28;8780;-73
2023/06/09 12:22:43;;;;;;;;;8.75;8.25;;;;;;;;5095133;28;8940;-74
2023/06/09 12:25:25;;;;;;;;;5.00;5.00;;;;;;;;5100942;28;8887;-73
2023/06/09 12:27:55;;;;;;;;;4.50;4.50;;;;;;;;5099354;28;8778;-74
2023/06/09 12:30:38;;;;;;;;;6.75;6.25;;;;;;;;5099468;28;8784;-74
2023/06/09 12:33:08;;;;;;;;;6.00;6.00;;;;;;;;5090712;28;8804;-76
2023/06/09 12:35:37;;;;;;;;;4.50;4.50;;;;;;;;5109035;28;8883;-72
2023/06/09 12:38:12;;;;;;;;;7.50;6.75;;;;;;;;5114192;28;8799;-74
2023/06/09 12:40:54;;;;;;;;;7.00;7.00;;;;;;;;5111009;28;8912;-78
2023/06/09 12:43:20;;;;;;;;;8.50;7.50;;;;;;;;5095637;28;8920;-79
2023/06/09 12:45:49;;;;;;;;;7.25;6.75;;;;;;;;5103666;28;8774;-80
2023/06/09 12:48:14;;;;;;;;;7.50;6.00;;;;;;;;5102667;28;8798;-81
2023/06/09 12:50:40;;;;;;;;;7.00;7.00;;;;;;;;5105450;28;8816;-80
2023/06/09 12:53:07;;;;;;;;;5.00;5.00;;;;;;;;5096876;28;8834;-82
2023/06/09 12:55:32;;;;;;;;;5.75;5.75;;;;;;;;5104506;28;8795;-82
2023/06/09 12:57:57;;;;;;;;;8.00;8.00;;;;;;;;5104558;28;8799;-80
2023/06/09 13:00:23;;;;;;;;;6.00;6.00;;;;;;;;5101746;28;8768;-81
2023/06/09 13:02:48;;;;;;;;;5.67;5.00;;;;;;;;5099592;28;8870;-82
2023/06/09 13:05:13;;;;;;;;;4.00;4.00;;;;;;;;5104176;28;8806;-80
2023/06/09 13:07:38;;;;;;;;;8.33;6.00;;;;;;;;5105123;28;8829;-80
2023/06/09 13:10:04;;;;;;;;;7.00;7.00;;;;;;;;5102726;28;8784;-80
2023/06/09 13:12:29;;;;;;;;;5.67;5.67;;;;;;;;5097325;28;8790;-82
2023/06/09 13:14:54;;;;;;;;;7.00;6.67;;;;;;;;5093419;28;8793;-79
2023/06/09 13:17:20;;;;;;;;;7.67;6.67;;;;;;;;5093672;28;8910;-84
2023/06/09 13:19:45;;;;;;;;;8.00;8.00;;;;;;;;5079898;28;8806;-77
2023/06/09 13:22:10;;;;;;;;;5.33;5.33;;;;;;;;5080209;28;8842;-75
2023/06/09 13:24:36;;;;;;;;;6.00;6.00;;;;;;;;5106428;28;9557;-74
2023/06/09 13:27:02;;;;;;;;;5.25;5.25;;;;;;;;5102732;28;8849;-73
2023/06/09 13:29:27;;;;;;;;;7.00;7.00;;;;;;;;5103469;28;8796;-74
2023/06/09 13:31:52;;;;;;;;;6.00;6.00;;;;;;;;5101322;28;8795;-75
2023/06/09 13:34:18;;;;;;;;;6.00;6.00;;;;;;;;5084706;28;9629;-75
2023/06/09 13:36:43;;;;;;;;;7.67;7.67;;;;;;;;5108097;28;8803;-76
2023/06/09 13:39:08;;;;;;;;;7.33;6.33;;;;;;;;5113522;28;8803;-77
2023/06/09 13:41:34;;;;;;;;;5.00;4.00;;;;;;;;5094467;28;8808;-76
2023/06/09 13:43:59;;;;;;;;;5.00;5.00;;;;;;;;5106375;28;8811;-75
2023/06/09 13:46:25;;;;;;;;;4.00;4.00;;;;;;;;5107790;28;8939;-73
2023/06/09 13:48:50;;;;;;;;;7.00;7.00;;;;;;;;5103065;28;8798;-76
2023/06/09 13:51:16;;;;;;;;;6.33;5.33;;;;;;;;5093226;28;9639;-76
2023/06/09 13:53:41;;;;;;;;;6.67;6.00;;;;;;;;5098446;28;9574;-75
2023/06/09 13:56:06;;;;;;;;;6.67;6.67;;;;;;;;5082356;28;8810;-74
2023/06/09 13:58:32;;;;;;;;;6.33;5.00;;;;;;;;5072174;28;8848;-75
2023/06/09 14:00:57;;;;;;;;;6.33;5.00;;;;;;;;5091370;28;8817;-75
2023/06/09 14:03:22;;;;;;;;;5.00;5.00;;;;;;;;5094497;28;8814;-72
2023/06/09 14:05:48;;;;;;;;;7.00;5.33;;;;;;;;5102805;28;8811;-75
2023/06/09 14:08:13;;;;;;;;;6.33;6.33;;;;;;;;5113090;28;8888;-84
2023/06/09 14:10:38;;;;;;;;;7.00;7.00;;;;;;;;5094494;28;8800;-79
2023/06/09 14:13:04;;;;;;;;;9.00;6.00;;;;;;;;5104724;28;8920;-77
2023/06/09 14:15:29;;;;;;;;;9.00;9.00;;;;;;;;5112739;28;8792;-76
2023/06/09 14:17:55;;;;;;;;;7.67;7.00;;;;;;;;5112674;28;8780;-78
2023/06/09 14:20:21;;;;;;;;;6.00;6.00;;;;;;;;5094223;28;8784;-76
2023/06/09 14:22:47;;;;;;;;;8.00;8.00;;;;;;;;5083141;28;10982;-74
2023/06/09 14:25:18;;;;;;;;;8.00;7.67;;;;;;;;5092133;28;8782;-72
2023/06/09 14:27:45;;;;;;;;;9.75;8.75;;;;;;;;5092178;28;8882;-72
2023/06/09 14:30:10;;;;;;;;;8.25;8.25;;;;;;;;5091886;28;8817;-71
2023/06/09 14:32:37;;;;;;;;;9.00;8.00;;;;;;;;5095507;28;8800;-72
2023/06/09 14:35:02;;;;;;;;;6.00;6.00;;;;;;;;5095817;28;8918;-76
2023/06/09 14:37:27;;;;;;;;;8.33;7.67;;;;;;;;5094095;28;8958;-76
2023/06/09 14:39:52;;;;;;;;;8.67;8.00;;;;;;;;5111639;28;8769;-75
2023/06/09 14:42:18;;;;;;;;;8.67;7.00;;;;;;;;5084583;28;8817;-76
2023/06/09 14:44:43;;;;;;;;;7.00;7.00;;;;;;;;5072999;28;8833;-77
2023/06/09 14:47:08;;;;;;;;;6.00;6.00;;;;;;;;5091749;28;8778;-79
2023/06/09 14:49:34;;;;;;;;;7.00;7.00;;;;;;;;5073240;28;8820;-80